Time;durP1;ratioP1;P1;durP2;ratioP2;P2;SDS_P1;SDS_P2;PMS_P1;PMS_P2;Temp;Humidity;BMP_temperature;BMP_pressure;BME280_temperature;BME280_humidity;BME280_pressure;Samples;Min_cycle;Max_cycle;Signal;HPM_P1;HPM_P2
2023/06/02 00:01:08;;;;;;;9.60;2.58;;;14.20;89.60;;;;;;5052638;28;20037;-68
2023/06/02 00:03:36;;;;;;;17.65;2.60;;;14.20;89.60;;;;;;5051586;28;20036;-68
2023/06/02 00:06:08;;;;;;;15.82;2.85;;;14.30;89.70;;;;;;5053197;28;20028;-68
2023/06/02 00:08:40;;;;;;;18.40;2.83;;;14.00;90.00;;;;;;5052214;28;20037;-69
2023/06/02 00:11:07;;;;;;;12.02;2.30;;;14.00;90.00;;;;;;5051840;28;20104;-69
2023/06/02 00:13:33;;;;;;;14.87;2.23;;;14.10;89.90;;;;;;5052126;28;20036;-69
2023/06/02 00:15:59;;;;;;;15.70;2.22;;;13.90;90.10;;;;;;5052203;28;20109;-69
2023/06/02 00:18:25;;;;;;;16.83;3.20;;;14.00;90.20;;;;;;5052644;28;20105;-69
2023/06/02 00:20:52;;;;;;;20.27;3.25;;;14.00;90.20;;;;;;5051977;28;20116;-69
2023/06/02 00:23:18;;;;;;;13.32;2.88;;;13.90;90.30;;;;;;5051803;28;20098;-68
2023/06/02 00:25:45;;;;;;;15.95;2.83;;;14.00;90.30;;;;;;5051985;28;20028;-67
2023/06/02 00:28:11;;;;;;;15.98;2.65;;;14.00;90.20;;;;;;5051900;28;20036;-68
2023/06/02 00:30:37;;;;;;;15.25;2.58;;;13.80;90.30;;;;;;5050696;28;20136;-69
2023/06/02 00:33:04;;;;;;;23.50;3.30;;;13.70;90.40;;;;;;5052881;28;20151;-68
2023/06/02 00:35:29;;;;;;;16.25;2.63;;;13.60;90.40;;;;;;5051792;28;20058;-69
2023/06/02 00:37:55;;;;;;;22.83;3.25;;;13.30;90.60;;;;;;5051727;28;20029;-69
2023/06/02 00:40:22;;;;;;;24.38;3.60;;;13.40;90.70;;;;;;5051779;28;20033;-70
2023/06/02 00:42:48;;;;;;;20.70;3.50;;;13.60;90.60;;;;;;5051877;28;20029;-68
2023/06/02 00:45:15;;;;;;;15.93;3.17;;;13.70;90.30;;;;;;5051903;28;20033;-69
2023/06/02 00:47:41;;;;;;;20.05;4.43;;;13.50;90.40;;;;;;5051564;28;20120;-69
2023/06/02 00:50:08;;;;;;;10.48;2.80;;;13.60;90.50;;;;;;5051355;28;20112;-70
2023/06/02 00:52:34;;;;;;;16.85;3.25;;;13.70;90.50;;;;;;5051577;28;20041;-69
2023/06/02 00:55:02;;;;;;;10.77;2.80;;;13.60;90.40;;;;;;5051149;28;20033;-69
2023/06/02 00:57:28;;;;;;;12.63;2.90;;;13.70;90.50;;;;;;5051517;28;20024;-68
2023/06/02 00:59:58;;;;;;;14.10;3.28;;;13.50;90.60;;;;;;5050800;28;20024;-69
2023/06/02 01:02:24;;;;;;;13.30;2.72;;;13.80;90.40;;;;;;5051143;28;20033;-69
2023/06/02 01:04:51;;;;;;;14.60;3.05;;;13.90;90.30;;;;;;5050095;28;20120;-69
2023/06/02 01:07:23;;;;;;;14.45;2.95;;;13.80;90.30;;;;;;5051258;28;20401;-69
2023/06/02 01:09:54;;;;;;;13.10;2.67;;;13.70;90.40;;;;;;5051014;28;20443;-69
2023/06/02 01:12:21;;;;;;;15.40;3.60;;;13.70;90.40;;;;;;5052188;28;20025;-69
2023/06/02 01:14:47;;;;;;;21.08;3.70;;;13.60;90.20;;;;;;5050969;28;20467;-69
2023/06/02 01:17:13;;;;;;;19.98;3.30;;;13.60;90.30;;;;;;5051029;28;20090;-69
2023/06/02 01:19:40;;;;;;;16.45;2.97;;;13.70;90.30;;;;;;5051138;28;20455;-70
2023/06/02 01:22:10;;;;;;;15.27;3.70;;;13.60;90.40;;;;;;5050914;28;20113;-69
2023/06/02 01:24:37;;;;;;;24.67;4.10;;;13.60;90.50;;;;;;5050593;28;20055;-69
2023/06/02 01:27:06;;;;;;;13.48;2.58;;;13.70;90.30;;;;;;5051228;28;20083;-69
2023/06/02 01:29:35;;;;;;;15.32;3.20;;;13.80;90.20;;;;;;5050735;28;20119;-70
2023/06/02 01:32:06;;;;;;;20.83;3.97;;;13.70;90.30;;;;;;5051062;28;20029;-68
2023/06/02 01:34:40;;;;;;;22.85;3.45;;;13.50;90.40;;;;;;5050725;28;20047;-69
2023/06/02 01:37:07;;;;;;;22.08;3.35;;;13.60;90.40;;;;;;5031627;28;20045;-69
2023/06/02 01:39:33;;;;;;;19.63;3.75;;;13.50;90.50;;;;;;5029767;28;20352;-69
2023/06/02 01:42:02;;;;;;;27.70;4.38;;;13.60;90.60;;;;;;5031431;28;20021;-68
2023/06/02 01:44:28;;;;;;;19.92;3.55;;;13.60;90.50;;;;;;5030627;28;20113;-69
2023/06/02 01:46:54;;;;;;;10.73;2.92;;;13.70;90.30;;;;;;5030646;28;20124;-69
2023/06/02 01:49:20;;;;;;;18.27;3.95;;;13.80;90.30;;;;;;5030347;28;20422;-70
2023/06/02 01:51:46;;;;;;;13.93;3.13;;;13.80;90.20;;;;;;5029373;28;20025;-68
2023/06/02 01:54:12;;;;;;;15.98;3.22;;;13.90;90.20;;;;;;5031494;28;20105;-69
2023/06/02 01:56:37;;;;;;;17.63;3.22;;;13.80;90.20;;;;;;5030701;28;20095;-69
2023/06/02 01:59:03;;;;;;;12.48;3.15;;;13.90;90.30;;;;;;5030625;28;20041;-69
2023/06/02 02:01:30;;;;;;;17.10;3.20;;;13.80;90.30;;;;;;5029535;28;20033;-68
2023/06/02 02:03:56;;;;;;;16.90;2.80;;;13.60;90.50;;;;;;5030552;28;20041;-69
2023/06/02 02:06:29;;;;;;;14.23;2.70;;;13.60;90.60;;;;;;5034049;28;20030;-69
2023/06/02 02:08:56;;;;;;;24.33;3.45;;;13.60;90.70;;;;;;5034818;28;20037;-69
2023/06/02 02:11:22;;;;;;;16.75;2.75;;;13.70;90.80;;;;;;5034689;28;20037;-69
2023/06/02 02:13:48;;;;;;;11.10;2.80;;;13.50;90.70;;;;;;5034586;28;20041;-68
2023/06/02 02:16:14;;;;;;;15.25;2.92;;;13.40;90.90;;;;;;5034409;28;20486;-68
2023/06/02 02:18:40;;;;;;;14.45;3.00;;;13.70;90.90;;;;;;5034311;28;20033;-69
2023/06/02 02:21:06;;;;;;;17.67;3.17;;;13.50;90.90;;;;;;5034716;28;20060;-69
2023/06/02 02:23:32;;;;;;;8.35;2.42;;;13.40;91.10;;;;;;5034392;28;20046;-69
2023/06/02 02:25:57;;;;;;;15.00;4.32;;;13.60;91.00;;;;;;5034348;28;20038;-70
2023/06/02 02:28:23;;;;;;;11.05;2.60;;;13.60;90.90;;;;;;5033031;28;20037;-70
2023/06/02 02:30:49;;;;;;;17.10;2.95;;;13.70;90.90;;;;;;5034026;28;20499;-69
2023/06/02 02:33:15;;;;;;;14.13;2.80;;;13.70;90.90;;;;;;5034424;28;20072;-70
2023/06/02 02:35:41;;;;;;;23.50;3.22;;;13.70;90.90;;;;;;5034045;28;20030;-70
2023/06/02 02:38:07;;;;;;;19.35;2.92;;;13.80;90.90;;;;;;5033990;28;20025;-70
2023/06/02 02:40:32;;;;;;;13.77;2.65;;;13.50;91.00;;;;;;5033893;28;20041;-70
2023/06/02 02:42:58;;;;;;;14.02;3.25;;;13.60;91.10;;;;;;5034125;28;20067;-69
2023/06/02 02:45:24;;;;;;;18.58;3.10;;;13.70;91.10;;;;;;5034247;28;20034;-68
2023/06/02 02:47:49;;;;;;;20.27;3.92;;;13.60;91.10;;;;;;5033846;28;20060;-69
2023/06/02 02:50:15;;;;;;;15.13;2.88;;;13.80;91.10;;;;;;5033743;28;20037;-68
2023/06/02 02:52:41;;;;;;;27.13;4.15;;;13.70;91.20;;;;;;5033832;28;20037;-69
2023/06/02 02:55:07;;;;;;;14.45;2.70;;;13.60;91.30;;;;;;5033504;28;20310;-69
2023/06/02 02:57:32;;;;;;;17.75;3.15;;;13.40;91.80;;;;;;5033584;28;20028;-69
2023/06/02 02:59:59;;;;;;;14.68;3.83;;;13.50;91.80;;;;;;5033981;28;20044;-69
2023/06/02 03:02:25;;;;;;;17.65;3.25;;;13.50;92.20;;;;;;5033678;28;20076;-69
2023/06/02 03:04:51;;;;;;;20.55;3.15;;;13.60;91.80;;;;;;5033461;28;20025;-69
2023/06/02 03:07:18;;;;;;;18.73;3.30;;;13.70;91.70;;;;;;5033319;28;20037;-69
2023/06/02 03:09:43;;;;;;;12.25;2.80;;;13.40;92.00;;;;;;5033159;28;20059;-69
2023/06/02 03:12:09;;;;;;;11.73;2.72;;;13.50;92.20;;;;;;5016168;28;20025;-69
2023/06/02 03:14:35;;;;;;;15.70;2.20;;;13.60;92.10;;;;;;5033211;28;20060;-68
2023/06/02 03:17:01;;;;;;;17.15;3.85;;;13.60;92.00;;;;;;5031741;28;20041;-69
2023/06/02 03:19:27;;;;;;;21.83;3.05;;;13.40;92.20;;;;;;5032184;28;20045;-69
2023/06/02 03:21:56;;;;;;;15.27;3.10;;;13.20;92.40;;;;;;5033177;28;20358;-70
2023/06/02 03:24:22;;;;;;;22.38;3.85;;;13.40;92.30;;;;;;5033464;28;20044;-70
2023/06/02 03:26:51;;;;;;;16.05;3.40;;;13.40;92.30;;;;;;5032927;28;20029;-70
2023/06/02 03:29:17;;;;;;;17.42;2.78;;;13.50;92.30;;;;;;5032849;28;20049;-69
2023/06/02 03:31:43;;;;;;;16.65;2.95;;;13.60;92.10;;;;;;5031913;28;20026;-71
2023/06/02 03:34:08;;;;;;;13.93;3.15;;;13.70;92.10;;;;;;5033013;28;20128;-69
2023/06/02 03:36:35;;;;;;;15.52;2.80;;;13.60;92.20;;;;;;5032840;28;20037;-70
2023/06/02 03:39:08;;;;;;;13.88;2.45;;;13.40;92.30;;;;;;5033306;28;20014;-69
2023/06/02 03:41:35;;;;;;;15.30;3.17;;;13.40;92.50;;;;;;5033117;28;20125;-70
2023/06/02 03:44:02;;;;;;;17.98;3.50;;;13.50;92.50;;;;;;5031565;28;20030;-70
2023/06/02 03:46:28;;;;;;;14.70;2.63;;;13.60;92.40;;;;;;5032726;28;20463;-69
2023/06/02 03:48:54;;;;;;;23.67;3.38;;;13.60;92.40;;;;;;5031513;28;20049;-69
2023/06/02 03:51:20;;;;;;;21.75;3.38;;;13.60;92.40;;;;;;5033021;28;20029;-68
2023/06/02 03:53:46;;;;;;;16.92;2.90;;;13.70;92.30;;;;;;5032568;28;20026;-68
2023/06/02 03:56:12;;;;;;;24.13;3.70;;;13.70;92.30;;;;;;5032525;28;20208;-69
2023/06/02 03:58:38;;;;;;;22.75;3.33;;;13.70;92.20;;;;;;5032280;28;20148;-68
2023/06/02 04:01:05;;;;;;;17.08;3.00;;;13.80;92.20;;;;;;5032295;28;20030;-69
2023/06/02 04:03:36;;;;;;;15.02;3.40;;;13.80;92.30;;;;;;5032327;28;20428;-69
2023/06/02 04:06:04;;;;;;;13.95;3.13;;;13.50;92.50;;;;;;5032605;28;20057;-70
2023/06/02 04:08:29;;;;;;;14.30;2.92;;;13.50;92.70;;;;;;5032448;28;20040;-69
2023/06/02 04:10:55;;;;;;;18.42;3.42;;;13.50;92.80;;;;;;5030981;28;20029;-69
2023/06/02 04:13:21;;;;;;;28.10;4.25;;;13.50;92.80;;;;;;5030995;28;20507;-70
2023/06/02 04:15:46;;;;;;;15.82;2.85;;;13.50;92.70;;;;;;5031898;28;20046;-69
2023/06/02 04:18:12;;;;;;;14.90;3.17;;;13.40;93.10;;;;;;5032450;28;20033;-70
2023/06/02 04:20:38;;;;;;;24.42;3.20;;;13.30;93.20;;;;;;5031927;28;20478;-69
2023/06/02 04:23:04;;;;;;;15.52;2.78;;;13.50;93.10;;;;;;5031626;28;20064;-69
2023/06/02 04:25:29;;;;;;;18.13;3.45;;;13.50;93.00;;;;;;5031733;28;20037;-69
2023/06/02 04:27:55;;;;;;;18.05;3.40;;;13.70;93.00;;;;;;5031292;28;20091;-70
2023/06/02 04:30:20;;;;;;;17.95;3.28;;;13.60;93.00;;;;;;5031943;28;20057;-69
2023/06/02 04:32:46;;;;;;;18.30;3.60;;;13.70;93.10;;;;;;5031686;28;20022;-69
2023/06/02 04:35:12;;;;;;;22.52;3.42;;;13.70;93.10;;;;;;5031635;28;20487;-69
2023/06/02 04:37:38;;;;;;;18.80;3.95;;;13.80;93.00;;;;;;5031580;28;20044;-69
2023/06/02 04:40:05;;;;;;;15.85;3.00;;;13.90;93.00;;;;;;5031496;28;20033;-70
2023/06/02 04:42:32;;;;;;;23.02;4.95;;;13.90;93.00;;;;;;5031402;28;20469;-67
2023/06/02 04:45:00;;;;;;;15.40;3.88;;;13.50;93.70;;;;;;5030705;28;20209;-69
2023/06/02 04:47:27;;;;;;;105.13;10.77;;;13.50;94.00;;;;;;5031472;28;20037;-70
2023/06/02 04:49:54;;;;;;;23.70;3.97;;;13.70;93.60;;;;;;5031302;28;20060;-69
2023/06/02 04:52:19;;;;;;;19.75;4.30;;;13.80;93.60;;;;;;5030111;28;20125;-68
2023/06/02 04:54:45;;;;;;;22.35;3.65;;;13.90;93.60;;;;;;5031328;28;20498;-68
2023/06/02 04:57:11;;;;;;;25.63;4.22;;;13.90;93.70;;;;;;5031588;28;20029;-69
2023/06/02 04:59:36;;;;;;;29.17;5.25;;;13.90;93.70;;;;;;5031360;28;20037;-69
2023/06/02 05:02:02;;;;;;;23.00;4.72;;;13.80;93.80;;;;;;5031315;28;20022;-70
2023/06/02 05:04:28;;;;;;;21.63;4.05;;;13.70;94.00;;;;;;5031195;28;20523;-70
2023/06/02 05:06:53;;;;;;;19.33;3.83;;;13.80;93.90;;;;;;5031138;28;20037;-69
2023/06/02 05:09:19;;;;;;;22.23;4.32;;;13.90;93.90;;;;;;5030296;28;20048;-69
2023/06/02 05:11:45;;;;;;;27.40;4.40;;;13.80;94.20;;;;;;5030989;28;20037;-69
2023/06/02 05:14:11;;;;;;;18.02;4.38;;;13.70;94.60;;;;;;5029853;28;20414;-71
2023/06/02 05:16:37;;;;;;;20.00;3.72;;;13.70;94.50;;;;;;5030729;28;20116;-69
2023/06/02 05:19:03;;;;;;;20.80;3.78;;;13.80;94.40;;;;;;5030934;28;20045;-68
2023/06/02 05:21:30;;;;;;;15.45;4.10;;;14.00;94.20;;;;;;5030758;28;20030;-68
2023/06/02 05:23:56;;;;;;;30.38;4.63;;;14.10;94.20;;;;;;5031152;28;20462;-68
2023/06/02 05:26:21;;;;;;;18.65;5.35;;;14.10;94.20;;;;;;5030637;28;20251;-69
2023/06/02 05:28:50;;;;;;;19.13;4.15;;;14.10;94.00;;;;;;5030260;28;20045;-70
2023/06/02 05:31:17;;;;;;;23.27;4.10;;;14.20;94.10;;;;;;5030567;28;20041;-69
2023/06/02 05:33:43;;;;;;;21.85;4.05;;;14.10;94.10;;;;;;5031150;28;20022;-68
2023/06/02 05:36:08;;;;;;;24.92;4.88;;;14.10;94.20;;;;;;5030886;28;20451;-68
2023/06/02 05:38:34;;;;;;;18.02;5.32;;;14.20;94.10;;;;;;5030478;28;20037;-68
2023/06/02 05:41:00;;;;;;;13.18;3.92;;;14.30;94.00;;;;;;5029673;28;20053;-69
2023/06/02 05:43:26;;;;;;;17.85;4.30;;;14.40;94.10;;;;;;5030284;28;20034;-71
2023/06/02 05:45:52;;;;;;;20.25;4.55;;;14.40;94.10;;;;;;5030716;28;20453;-69
2023/06/02 05:48:17;;;;;;;22.25;4.80;;;14.30;94.20;;;;;;5030756;28;20452;-72
2023/06/02 05:50:43;;;;;;;24.05;4.68;;;14.30;94.30;;;;;;5030768;28;20033;-72
2023/06/02 05:53:09;;;;;;;21.23;4.50;;;14.40;94.50;;;;;;5029792;28;20030;-72
2023/06/02 05:55:36;;;;;;;22.42;4.95;;;14.30;94.70;;;;;;5030445;28;20033;-71
2023/06/02 05:58:02;;;;;;;19.33;5.33;;;14.00;95.10;;;;;;5029394;28;20033;-72
2023/06/02 06:00:28;;;;;;;19.35;4.90;;;14.00;95.30;;;;;;5030517;28;20320;-70
2023/06/02 06:02:53;;;;;;;15.55;5.28;;;14.00;95.40;;;;;;5030847;28;20026;-77
2023/06/02 06:05:19;;;;;;;18.23;4.95;;;13.80;95.50;;;;;;5029210;28;20034;-71
2023/06/02 06:07:45;;;;;;;13.65;4.50;;;14.00;95.40;;;;;;5030241;28;20092;-71
2023/06/02 06:10:10;;;;;;;17.85;4.75;;;13.90;95.30;;;;;;5030364;28;20044;-71
2023/06/02 06:12:36;;;;;;;24.35;5.28;;;14.00;95.30;;;;;;5030210;28;20060;-72
2023/06/02 06:15:02;;;;;;;19.40;4.75;;;14.10;95.20;;;;;;5031014;28;20363;-71
2023/06/02 06:17:28;;;;;;;15.98;4.05;;;14.20;95.10;;;;;;5030269;28;20033;-70
2023/06/02 06:19:53;;;;;;;22.27;4.50;;;14.00;95.30;;;;;;5030677;28;20117;-70
2023/06/02 06:22:19;;;;;;;13.23;3.75;;;14.10;95.20;;;;;;5030076;28;20032;-71
2023/06/02 06:24:45;;;;;;;18.05;4.38;;;14.20;95.20;;;;;;5029373;28;20390;-67
2023/06/02 06:27:11;;;;;;;22.17;4.68;;;14.40;95.10;;;;;;5030432;28;20026;-71
2023/06/02 06:29:37;;;;;;;19.42;5.20;;;14.40;95.00;;;;;;5028512;28;20072;-71
2023/06/02 06:32:05;;;;;;;19.92;4.53;;;14.60;94.80;;;;;;5029980;28;20030;-71
2023/06/02 06:34:31;;;;;;;17.15;4.35;;;14.40;94.80;;;;;;5030212;28;20042;-73
2023/06/02 06:36:57;;;;;;;14.05;3.72;;;14.30;95.10;;;;;;5029605;28;20098;-68
2023/06/02 06:39:22;;;;;;;17.90;4.30;;;14.60;94.80;;;;;;5030139;28;20025;-71
2023/06/02 06:41:48;;;;;;;14.38;3.92;;;14.70;94.50;;;;;;5028804;28;20048;-74
2023/06/02 06:44:14;;;;;;;18.05;4.28;;;14.80;94.40;;;;;;5029939;28;20033;-68
2023/06/02 06:46:40;;;;;;;16.33;3.85;;;14.90;94.40;;;;;;5029926;28;20049;-68
2023/06/02 06:49:06;;;;;;;16.92;4.60;;;14.50;94.80;;;;;;5029812;28;20029;-69
2023/06/02 06:51:31;;;;;;;20.27;5.75;;;14.50;95.00;;;;;;5030825;28;20029;-68
2023/06/02 06:53:57;;;;;;;15.40;4.40;;;14.60;94.90;;;;;;5034270;28;20025;-69
2023/06/02 06:56:23;;;;;;;19.13;4.68;;;14.70;94.70;;;;;;5033920;28;20044;-68
2023/06/02 06:58:48;;;;;;;20.38;4.28;;;14.60;94.90;;;;;;5033289;28;20037;-68
2023/06/02 07:01:14;;;;;;;23.23;4.75;;;14.70;95.10;;;;;;5032489;28;20033;-69
2023/06/02 07:03:40;;;;;;;15.55;3.95;;;14.80;94.90;;;;;;5033654;28;20097;-69
2023/06/02 07:06:06;;;;;;;15.25;3.70;;;15.00;94.80;;;;;;5032916;28;20409;-73
2023/06/02 07:08:32;;;;;;;16.67;3.85;;;15.00;94.70;;;;;;5033601;28;20030;-72
2023/06/02 07:10:57;;;;;;;15.50;3.58;;;14.80;94.70;;;;;;5032135;28;20627;-68
2023/06/02 07:13:26;;;;;;;17.25;4.00;;;15.00;94.80;;;;;;5033325;28;20490;-69
2023/06/02 07:15:51;;;;;;;19.33;3.97;;;15.20;94.60;;;;;;5032002;28;20112;-67
2023/06/02 07:18:17;;;;;;;19.42;4.25;;;15.30;94.20;;;;;;5033776;28;20104;-69
2023/06/02 07:20:43;;;;;;;14.25;3.63;;;15.40;94.20;;;;;;5032097;28;20121;-68
2023/06/02 07:23:09;;;;;;;18.15;5.03;;;15.40;94.40;;;;;;5033110;28;20128;-69
2023/06/02 07:25:36;;;;;;;13.98;3.80;;;15.50;94.20;;;;;;5032952;28;20138;-69
2023/06/02 07:28:03;;;;;;;11.13;3.55;;;15.60;94.00;;;;;;5031787;28;20368;-69
2023/06/02 07:30:29;;;;;;;18.67;3.85;;;15.70;93.90;;;;;;5032534;28;20045;-69
2023/06/02 07:32:54;;;;;;;18.10;4.18;;;15.70;94.00;;;;;;5033464;28;20422;-68
2023/06/02 07:35:20;;;;;;;17.08;4.32;;;15.80;94.00;;;;;;5032589;28;20040;-69
2023/06/02 07:37:51;;;;;;;19.45;4.15;;;15.80;93.70;;;;;;5032249;28;20052;-69
2023/06/02 07:40:16;;;;;;;17.00;4.60;;;15.90;93.80;;;;;;5031304;28;20038;-70
2023/06/02 07:42:42;;;;;;;18.88;4.15;;;15.90;93.50;;;;;;5032487;28;20091;-69
2023/06/02 07:45:08;;;;;;;14.88;3.90;;;16.10;93.50;;;;;;5032750;28;20597;-71
2023/06/02 07:47:34;;;;;;;16.40;3.83;;;16.00;93.30;;;;;;5032098;28;20404;-70
2023/06/02 07:50:00;;;;;;;18.70;4.53;;;15.90;93.50;;;;;;5032506;28;20112;-68
2023/06/02 07:52:25;;;;;;;19.45;4.57;;;15.90;93.40;;;;;;5031383;28;20120;-69
2023/06/02 07:54:51;;;;;;;15.93;4.10;;;16.10;93.40;;;;;;5032211;28;20025;-70
2023/06/02 07:57:16;;;;;;;19.50;4.30;;;16.00;93.10;;;;;;5031488;28;20278;-70
2023/06/02 07:59:42;;;;;;;14.02;3.92;;;16.40;93.50;;;;;;5032109;28;20030;-70
2023/06/02 08:02:08;;;;;;;11.85;4.03;;;16.80;92.80;;;;;;5032477;28;20044;-70
2023/06/02 08:04:34;;;;;;;14.60;3.88;;;16.80;92.20;;;;;;5031704;28;20509;-71
2023/06/02 08:07:00;;;;;;;16.50;3.97;;;16.30;92.50;;;;;;5030960;28;20044;-69
2023/06/02 08:09:26;;;;;;;13.93;3.72;;;16.20;92.60;;;;;;5031253;28;20024;-71
2023/06/02 08:11:52;;;;;;;16.48;3.88;;;16.40;92.70;;;;;;5031885;28;20029;-71
2023/06/02 08:14:18;;;;;;;20.00;4.38;;;16.70;92.50;;;;;;5031808;28;20117;-70
2023/06/02 08:16:43;;;;;;;13.88;3.22;;;16.60;92.50;;;;;;5031439;28;20139;-71
2023/06/02 08:19:10;;;;;;;19.60;3.50;;;16.80;92.10;;;;;;5031740;28;20411;-70
2023/06/02 08:21:38;;;;;;;7.55;3.20;;;16.90;92.10;;;;;;5030052;28;20447;-72
2023/06/02 08:24:04;;;;;;;12.88;4.10;;;17.00;91.70;;;;;;5032227;28;20112;-71
2023/06/02 08:26:30;;;;;;;16.30;3.65;;;17.30;91.60;;;;;;5031480;28;20028;-72
2023/06/02 08:28:57;;;;;;;15.95;4.40;;;17.20;91.10;;;;;;5031076;28;20026;-72
2023/06/02 08:31:23;;;;;;;17.63;3.80;;;17.00;91.30;;;;;;5031353;28;20462;-71
2023/06/02 08:33:52;;;;;;;23.83;4.10;;;16.90;91.60;;;;;;5030554;28;20396;-67
2023/06/02 08:36:20;;;;;;;13.00;4.60;;;16.70;91.80;;;;;;5030480;28;20203;-71
2023/06/02 08:38:51;;;;;;;14.93;4.22;;;16.70;91.80;;;;;;5029741;28;20125;-70
2023/06/02 08:41:17;;;;;;;9.30;3.72;;;16.80;91.90;;;;;;5030987;28;20098;-71
2023/06/02 08:43:43;;;;;;;11.80;3.90;;;16.80;91.70;;;;;;5029884;28;20033;-72
2023/06/02 08:46:15;;;;;;;18.25;3.92;;;17.20;91.70;;;;;;5029803;28;20033;-69
2023/06/02 08:48:45;;;;;;;24.40;4.43;;;17.20;91.30;;;;;;5029952;28;20025;-70
2023/06/02 08:51:14;;;;;;;15.50;3.97;;;17.60;91.50;;;;;;5030948;28;20017;-70
2023/06/02 08:53:41;;;;;;;10.43;4.10;;;17.30;91.30;;;;;;5030917;28;20034;-66
2023/06/02 08:56:07;;;;;;;14.38;3.63;;;17.30;91.40;;;;;;5030582;28;20037;-70
2023/06/02 08:58:34;;;;;;;20.05;4.75;;;17.40;91.30;;;;;;5029367;28;20110;-69
2023/06/02 09:01:02;;;;;;;13.55;3.80;;;17.60;91.20;;;;;;5030538;28;20037;-69
2023/06/02 09:03:28;;;;;;;12.98;3.92;;;17.80;90.70;;;;;;5029724;28;20053;-69
2023/06/02 09:05:54;;;;;;;15.38;4.97;;;17.60;90.60;;;;;;5029381;28;20533;-69
2023/06/02 09:08:20;;;;;;;15.52;3.75;;;17.30;91.30;;;;;;5030356;28;20159;-68
2023/06/02 09:10:48;;;;;;;15.77;3.83;;;17.30;91.10;;;;;;5030735;28;20053;-69
2023/06/02 09:13:34;;;;;;;32.20;4.93;;;17.40;91.30;;;;;;5030275;28;20332;-70
2023/06/02 09:16:02;;;;;;;15.52;4.18;;;17.90;91.00;;;;;;5030496;28;20041;-69
2023/06/02 09:18:28;;;;;;;;;;;18.50;90.40;;;;;;5031108;28;20033;-70
2023/06/02 09:20:58;;;;;;;14.18;3.45;;;18.80;90.10;;;;;;5030221;28;19936;-70
2023/06/02 09:23:43;;;;;;;15.85;3.85;;;19.20;89.10;;;;;;5030231;28;20048;-69
2023/06/02 09:26:25;;;;;;;16.02;3.75;;;19.90;87.90;;;;;;5029968;28;20113;-71
2023/06/02 09:29:08;;;;;;;13.75;2.78;;;19.60;85.90;;;;;;5030349;28;20034;-68
2023/06/02 09:31:52;;;;;;;14.48;3.05;;;19.80;86.40;;;;;;5029398;28;20060;-70
2023/06/02 09:34:20;;;;;;;13.23;3.00;;;19.80;86.00;;;;;;5030723;28;20064;-69
2023/06/02 09:36:53;;;;;;;14.05;3.03;;;19.80;85.60;;;;;;5029805;28;20028;-70
2023/06/02 09:39:38;;;;;;;13.75;3.55;;;19.70;85.60;;;;;;5030676;28;20032;-68
2023/06/02 09:42:06;;;;;;;9.80;3.03;;;19.60;85.90;;;;;;5029807;28;20048;-70
2023/06/02 09:44:32;;;;;;;19.30;2.88;;;19.40;85.20;;;;;;5030517;28;20108;-70
2023/06/02 09:46:59;;;;;;;18.92;3.00;;;19.20;86.50;;;;;;5030422;28;20034;-71
2023/06/02 09:49:25;;;;;;;19.38;4.13;;;19.30;86.70;;;;;;5030574;28;20099;-69
2023/06/02 09:51:51;;;;;;;12.93;4.00;;;19.40;86.40;;;;;;5030446;28;20474;-70
2023/06/02 09:54:17;;;;;;;15.80;4.18;;;19.40;86.60;;;;;;5031398;28;20100;-70
2023/06/02 09:56:43;;;;;;;19.83;3.08;;;19.50;86.40;;;;;;5028550;28;20132;-72
2023/06/02 09:59:08;;;;;;;14.32;3.13;;;19.50;86.40;;;;;;5028714;28;20443;-70
2023/06/02 10:01:36;;;;;;;14.82;4.28;;;19.20;86.00;;;;;;5029765;28;20124;-69
2023/06/02 10:04:03;;;;;;;10.40;3.28;;;19.50;86.90;;;;;;5030043;28;20029;-72
2023/06/02 10:06:56;;;;;;;13.80;3.03;;;19.50;86.10;;;;;;5029408;28;20450;-68
2023/06/02 10:10:08;;;;;;;13.73;2.80;;;19.60;85.90;;;;;;5029194;28;20351;-70
2023/06/02 10:12:58;;;;;;;14.45;3.33;;;19.70;85.50;;;;;;4969201;28;20144;-70
2023/06/02 10:15:49;;;;;;;11.98;2.75;;;20.10;85.00;;;;;;4968711;28;20034;-69
2023/06/02 10:18:39;;;;;;;15.38;3.00;;;20.20;84.40;;;;;;5021560;28;20029;-66
2023/06/02 10:21:08;;;;;;;13.52;2.83;;;20.70;84.00;;;;;;5029454;28;20348;-69
2023/06/02 10:24:15;;;;;;;18.52;3.65;;;20.40;82.30;;;;;;5028308;28;20057;-69
2023/06/02 10:26:59;;;;;;;15.95;2.97;;;20.60;83.60;;;;;;5029334;28;20130;-70
2023/06/02 10:29:28;;;;;;;15.10;3.10;;;20.50;82.80;;;;;;5033328;28;20057;-67
2023/06/02 10:31:53;;;;;;;17.95;2.83;;;20.60;83.00;;;;;;5032120;28;20037;-68
2023/06/02 10:34:34;;;;;;;10.18;2.95;;;20.70;83.10;;;;;;5033435;28;20045;-68
2023/06/02 10:37:00;;;;;;;11.38;2.95;;;20.60;82.50;;;;;;5033229;28;20390;-69
2023/06/02 10:39:35;;;;;;;15.00;2.95;;;20.60;83.20;;;;;;5033975;28;20029;-68
2023/06/02 10:42:09;;;;;;;10.27;3.20;;;20.80;82.80;;;;;;5033469;28;20451;-68
2023/06/02 10:44:35;;;;;;;10.90;2.95;;;20.90;82.40;;;;;;5033721;28;20064;-68
2023/06/02 10:47:19;;;;;;;11.45;3.30;;;20.90;82.40;;;;;;5032462;28;20092;-70
2023/06/02 10:49:59;;;;;;;15.18;2.85;;;20.90;82.00;;;;;;5033647;28;20055;-69
2023/06/02 10:52:25;;;;;;;11.95;2.70;;;21.00;81.50;;;;;;5033542;28;20041;-69
2023/06/02 10:55:10;;;;;;;12.98;2.70;;;20.90;81.00;;;;;;5033453;28;20095;-69
2023/06/02 10:57:54;;;;;;;16.35;3.20;;;20.60;81.50;;;;;;5033780;28;20042;-71
2023/06/02 11:00:40;;;;;;;21.98;2.80;;;20.60;81.50;;;;;;5034070;28;20022;-73
2023/06/02 11:03:09;;;;;;;15.98;2.85;;;20.80;82.00;;;;;;5033563;28;20131;-70
2023/06/02 11:05:35;;;;;;;14.90;2.72;;;21.00;81.90;;;;;;5032359;28;20475;-71
2023/06/02 11:08:13;;;;;;;20.23;4.88;;;20.90;81.10;;;;;;5033286;28;20051;-69
2023/06/02 11:10:58;;;;;;;15.27;3.22;;;20.70;81.50;;;;;;5033308;28;20422;-71
2023/06/02 11:13:25;;;;;;;13.57;2.83;;;20.20;81.60;;;;;;5032190;28;20034;-69
2023/06/02 11:15:58;;;;;;;11.77;2.83;;;20.40;82.50;;;;;;5033072;28;20041;-70
2023/06/02 11:18:41;;;;;;;10.38;2.40;;;20.60;82.30;;;;;;5033775;28;20021;-68
2023/06/02 11:21:18;;;;;;;13.35;2.75;;;20.50;82.70;;;;;;5033343;28;20486;-71
2023/06/02 11:23:44;;;;;;;16.38;2.65;;;20.50;82.10;;;;;;5031868;28;20128;-70
2023/06/02 11:26:13;;;;;;;14.35;3.22;;;20.50;82.50;;;;;;5033039;28;20026;-69
2023/06/02 11:28:39;;;;;;;22.70;3.70;;;20.40;82.80;;;;;;5033252;28;20033;-70
2023/06/02 11:31:04;;;;;;;14.07;3.30;;;20.60;83.00;;;;;;5032989;28;20126;-70
2023/06/02 11:33:34;;;;;;;10.77;2.63;;;20.70;82.40;;;;;;5032279;28;20022;-68
2023/06/02 11:36:08;;;;;;;7.72;2.45;;;20.60;82.30;;;;;;5052774;28;20463;-69
2023/06/02 11:38:35;;;;;;;14.93;2.67;;;20.60;82.70;;;;;;5051878;28;20075;-68
2023/06/02 11:41:11;;;;;;;11.48;2.75;;;20.70;82.70;;;;;;5040699;28;20049;-68
2023/06/02 11:44:04;;;;;;;15.60;3.00;;;20.80;83.30;;;;;;5033459;28;20422;-67
2023/06/02 11:46:30;;;;;;;14.13;2.35;;;20.90;82.90;;;;;;5034502;28;20041;-66
2023/06/02 11:48:55;;;;;;;12.07;4.05;;;21.00;82.00;;;;;;5033176;28;20026;-68
2023/06/02 11:51:22;;;;;;;11.00;2.28;;;21.00;82.60;;;;;;5033376;28;20025;-71
2023/06/02 11:53:58;;;;;;;10.57;2.70;;;21.10;81.80;;;;;;5032870;28;20025;-70
2023/06/02 11:56:25;;;;;;;9.48;2.78;;;21.20;82.00;;;;;;5032651;28;20037;-71
2023/06/02 11:58:52;;;;;;;11.38;2.50;;;21.30;82.80;;;;;;5032515;28;20041;-73
2023/06/02 12:01:18;;;;;;;14.18;2.60;;;21.40;81.50;;;;;;5032865;28;20036;-70
2023/06/02 12:04:03;;;;;;;15.82;3.05;;;21.20;82.80;;;;;;5032690;28;20083;-71
2023/06/02 12:06:30;;;;;;;11.43;3.00;;;21.20;83.00;;;;;;5033026;28;20063;-77
2023/06/02 12:08:56;;;;;;;13.98;3.03;;;21.10;82.50;;;;;;5032571;28;20037;-72
2023/06/02 12:11:23;;;;;;;12.75;2.78;;;21.00;82.50;;;;;;5032137;28;20053;-71
2023/06/02 12:13:57;;;;;;;14.65;2.70;;;21.20;83.40;;;;;;5032436;28;20103;-70
2023/06/02 12:16:24;;;;;;;14.80;3.03;;;21.10;82.30;;;;;;5032182;28;20076;-70
2023/06/02 12:18:50;;;;;;;12.13;2.40;;;21.20;82.60;;;;;;5031584;28;20418;-69
2023/06/02 12:21:26;;;;;;;28.80;4.18;;;21.40;82.80;;;;;;5033544;28;20021;-69
2023/06/02 12:23:54;;;;;;;45.28;5.43;;;21.30;82.60;;;;;;5032154;28;20052;-70
2023/06/02 12:26:21;;;;;;;13.93;2.72;;;21.30;82.70;;;;;;5032027;28;20088;-70
2023/06/02 12:28:50;;;;;;;12.45;2.60;;;21.40;82.70;;;;;;5032406;28;20026;-68
2023/06/02 12:31:16;;;;;;;9.48;2.42;;;21.30;82.80;;;;;;5030785;28;20418;-71
2023/06/02 12:33:43;;;;;;;21.95;3.65;;;21.20;83.20;;;;;;5030936;28;20426;-70
2023/06/02 12:36:10;;;;;;;13.45;2.90;;;21.10;83.80;;;;;;5032255;28;20099;-69
2023/06/02 12:38:38;;;;;;;15.13;2.83;;;21.00;83.00;;;;;;5031716;28;20049;-68
2023/06/02 12:41:07;;;;;;;19.50;3.40;;;21.00;82.70;;;;;;5032131;28;20052;-72
2023/06/02 12:43:32;;;;;;;14.27;3.10;;;20.80;83.00;;;;;;5031743;28;20059;-71